createdAt,value
2022-11-05T00:00:02.427Z,1010.26
2022-11-05T00:16:02.302Z,1010.33
2022-11-05T00:31:02.322Z,1010.54
2022-11-05T00:46:02.316Z,1010.91
2022-11-05T01:00:02.628Z,1010.94
2022-11-05T01:16:02.862Z,1011.01
2022-11-05T01:31:02.303Z,1011.21
2022-11-05T01:46:02.286Z,1011.18
2022-11-05T02:00:02.353Z,1011.04
2022-11-05T02:16:02.317Z,1011.15
2022-11-05T02:31:02.318Z,1011.18
2022-11-05T02:46:02.333Z,1011.25
2022-11-05T03:00:02.329Z,1011.52
2022-11-05T03:16:02.329Z,1011.52
2022-11-05T03:31:02.310Z,1011.62
2022-11-05T03:46:02.308Z,1011.89
2022-11-05T04:00:02.306Z,1011.62
2022-11-05T04:16:02.304Z,1011.82
2022-11-05T04:31:02.305Z,1011.96
2022-11-05T04:46:02.282Z,1012.06
2022-11-05T05:00:02.417Z,1012.16
2022-11-05T05:16:02.309Z,1012.47
2022-11-05T05:31:02.289Z,1012.64
2022-11-05T05:46:02.304Z,1012.91
2022-11-05T06:00:02.288Z,1013.24
2022-11-05T06:16:03.016Z,1013.35
2022-11-05T06:31:02.312Z,1013.68
2022-11-05T06:46:02.262Z,1013.89
2022-11-05T07:00:07.356Z,1014.06
2022-11-05T07:16:02.280Z,1014.16
2022-11-05T07:31:02.248Z,1014.06
2022-11-05T07:46:03.122Z,1014.23
2022-11-05T08:00:02.251Z,1014.23
2022-11-05T08:16:02.245Z,1014.29
2022-11-05T08:31:02.225Z,1014.4
2022-11-05T08:46:02.288Z,1014.53
2022-11-05T09:00:02.559Z,1014.53
2022-11-05T09:16:02.264Z,1014.6
2022-11-05T09:31:02.258Z,1014.7
2022-11-05T09:46:02.357Z,1014.73
2022-11-05T10:00:02.265Z,1014.8
2022-11-05T10:16:02.246Z,1014.6
2022-11-05T10:31:02.231Z,1014.63
2022-11-05T10:46:02.267Z,1014.6
2022-11-05T11:00:02.267Z,1014.77
2022-11-05T11:16:02.229Z,1014.73
2022-11-05T11:31:02.260Z,1014.53
2022-11-05T11:46:06.917Z,1014.29
2022-11-05T12:00:10.059Z,1014.16
2022-11-05T12:16:02.262Z,1014.19
2022-11-05T12:31:02.237Z,1014.16
2022-11-05T12:46:02.283Z,1014.19
2022-11-05T13:00:02.547Z,1014.19
2022-11-05T13:16:02.247Z,1014.19
2022-11-05T13:31:02.261Z,1014.23
2022-11-05T13:46:05.955Z,1014.43
2022-11-05T14:00:02.238Z,1014.53
2022-11-05T14:16:02.292Z,1014.5
2022-11-05T14:31:02.291Z,1014.57
2022-11-05T14:46:02.286Z,1014.6
2022-11-05T15:00:02.623Z,1014.77
2022-11-05T15:16:02.274Z,1014.9
2022-11-05T15:31:02.301Z,1014.94
2022-11-05T15:46:02.285Z,1015.01
2022-11-05T16:00:02.430Z,1015.24
2022-11-05T16:16:02.243Z,1015.34
2022-11-05T16:31:02.291Z,1015.58
2022-11-05T16:46:02.242Z,1015.85
2022-11-05T17:00:02.295Z,1016.06
2022-11-05T17:16:02.245Z,1016.39
2022-11-05T17:31:02.244Z,1016.66
2022-11-05T17:46:04.840Z,1016.8
2022-11-05T18:00:02.264Z,1017
2022-11-05T18:16:02.230Z,1017.31
2022-11-05T18:31:02.265Z,1017.48
2022-11-05T18:46:02.248Z,1017.58
2022-11-05T19:00:02.571Z,1017.68
2022-11-05T19:16:02.265Z,1017.88
2022-11-05T19:31:02.238Z,1017.99
2022-11-05T19:46:02.216Z,1018.09
2022-11-05T20:00:02.243Z,1018.09
2022-11-05T20:16:02.252Z,1018.19
2022-11-05T20:31:02.240Z,1018.43
2022-11-05T20:46:02.242Z,1018.66
2022-11-05T21:00:02.272Z,1018.76
2022-11-05T21:16:02.257Z,1018.9
2022-11-05T21:31:02.257Z,1019.04
2022-11-05T21:46:02.218Z,1019.04
2022-11-05T22:00:02.248Z,1018.93
2022-11-05T22:16:02.192Z,1019.04
2022-11-05T22:31:02.228Z,1019
2022-11-05T22:46:04.753Z,1019.04
2022-11-05T23:00:02.282Z,1019.1
2022-11-05T23:16:02.222Z,1019.27
2022-11-05T23:31:02.213Z,1019.31
2022-11-05T23:46:02.220Z,1019.24
